Halifax, PA (17032)

5:01 AM EST on December 21, 2014 (GMT -0500)
Enders/Fisherville | Change Station
CLOSE
Current Station
Personal Weather Station
Location: Halifax, PA
Elevation: 581 ft
Nearby Weather Stations

Elev 581 ft 40.50 °N, 76.87 °W | Updated 2 seconds ago

Overcast
Overcast
29.3 °F
Feels Like 29 °F
N
0.0
Wind Variable Wind from North
Gusts 0.0 mph

Today
High -- | Low -- °F
--% Chance of Precip.
Yesterday
High -- | Low -- °F
Precip. -- in
7:27 AM 4:43 PM
Waning Crescent, 1% visible
Pressure 30.32 in
Visibility 10.0 miles
Clouds Few 2800 ft
Overcast 10000 ft
Windchill 29 °F
Dew Point 26 °F
Humidity 86%
Rainfall 0.00 in
Snow Depth Not available.
UV 0 out of 12
Pollen .10 out of 12
Air Quality Not available.
Flu Activity Not available.
METAR KMUI 210958Z AUTO 30002KT 10SM FEW028 OVC100 M01/M05 A3029 RMK AO2 SLP266 T10111055

More Conditions Fewer Conditions

Pressure 30.32 in
Visibility 10.0 miles
Clouds Few 2800 ft
Overcast 10000 ft
Windchill 29 °F
Dew Point 26 °F
Humidity 86%
Rainfall 0.00 in
Snow Depth Not available.
UV 0 out of 12
Pollen .10 out of 12
Air Quality Not available.
Flu Activity Not available.
METAR KMUI 210958Z AUTO 30002KT 10SM FEW028 OVC100 M01/M05 A3029 RMK AO2 SLP266 T10111055

More Conditions Fewer Conditions

10-Day Weather Forecast

Almanac

Astronomy

Dec. 21, 2014 Rise Set
Actual Time
Civil Twilight
Nautical Twilight
Astronomical Twilight
Moon
Length of Visible Light
Length of Day
Tomorrow will be .
, % of the Moon is Illuminated

Today's Extremes

State Highs State Lows

Community

WunderPhotos

Upload Photos

1,779,364 photos uploaded!

WunderBlogs® & News

Nearby

Air Quality

  Air Quality AQ Index Pollutant
Not available.

Snow Depth

Station Depth Elevation

Earthquake Activity

City Distance Mag. Time & Date
Minimum magnitude displayed is 2.5.

Coastal Water Temperatures

Place Temperature

Nearby Weather Stations